createdAt,value
2023-02-13T00:00:40.988Z,59.89
2023-02-13T00:01:40.983Z,56.23
2023-02-13T00:02:41.035Z,56.06
2023-02-13T00:03:41.065Z,56.09
2023-02-13T00:04:40.935Z,56.01
2023-02-13T00:05:40.967Z,55.98
2023-02-13T00:06:40.928Z,56.10
2023-02-13T00:07:40.964Z,55.97
2023-02-13T00:08:40.964Z,55.94
2023-02-13T00:09:40.947Z,55.99
2023-02-13T00:10:40.925Z,56.05
2023-02-13T00:11:40.936Z,56.23
2023-02-13T00:12:40.904Z,56.03
2023-02-13T00:13:40.925Z,56.00
2023-02-13T00:14:40.915Z,55.93
2023-02-13T00:15:40.966Z,55.91
2023-02-13T00:16:40.875Z,62.83
2023-02-13T00:17:40.934Z,56.65
2023-02-13T00:18:40.880Z,55.95
2023-02-13T00:19:40.907Z,56.08
2023-02-13T00:20:40.891Z,55.99
2023-02-13T00:21:40.840Z,56.12
2023-02-13T00:22:40.876Z,56.11
2023-02-13T00:23:40.846Z,56.35
2023-02-13T00:24:40.865Z,56.30
2023-02-13T00:25:40.836Z,56.33
2023-02-13T00:26:40.862Z,56.16
2023-02-13T00:27:40.920Z,56.08
2023-02-13T00:28:40.943Z,56.08
2023-02-13T00:29:40.828Z,56.03
2023-02-13T00:30:40.860Z,59.26
2023-02-13T00:31:40.957Z,56.45
2023-02-13T00:32:40.812Z,56.39
2023-02-13T00:33:40.781Z,56.45
2023-02-13T00:34:40.772Z,56.30
2023-02-13T00:35:40.790Z,60.60
2023-02-13T00:36:40.770Z,56.21
2023-02-13T00:37:40.763Z,55.94
2023-02-13T00:38:40.742Z,56.06
2023-02-13T00:39:40.750Z,56.23
2023-02-13T00:40:40.750Z,56.39
2023-02-13T00:41:40.760Z,56.43
2023-02-13T00:42:41.197Z,56.49
2023-02-13T00:43:40.749Z,56.09
2023-02-13T00:44:40.760Z,56.18
2023-02-13T00:45:40.705Z,56.16
2023-02-13T00:46:40.826Z,56.01
2023-02-13T00:47:40.714Z,57.79
2023-02-13T00:48:40.734Z,57.72
2023-02-13T00:49:40.706Z,56.19
2023-02-13T00:50:40.677Z,56.19
2023-02-13T00:51:40.697Z,56.42
2023-02-13T00:52:40.693Z,59.31
2023-02-13T00:53:40.658Z,56.10
2023-02-13T00:54:40.671Z,63.30
2023-02-13T00:55:40.656Z,60.78
2023-02-13T00:56:40.669Z,56.16
2023-02-13T00:57:40.661Z,56.18
2023-02-13T00:58:40.707Z,56.07
2023-02-13T00:59:40.641Z,57.14
2023-02-13T01:00:40.622Z,56.05
2023-02-13T01:01:40.651Z,56.03
2023-02-13T01:02:40.635Z,56.16
2023-02-13T01:03:40.686Z,56.82
2023-02-13T01:04:40.624Z,56.47
2023-02-13T01:05:40.674Z,56.40
2023-02-13T01:06:40.605Z,56.41
2023-02-13T01:07:40.594Z,56.20
2023-02-13T01:08:40.664Z,60.15
2023-02-13T01:09:40.592Z,56.84
2023-02-13T01:10:40.625Z,56.20
2023-02-13T01:11:40.586Z,56.03
2023-02-13T01:12:40.598Z,55.97
2023-02-13T01:13:41.587Z,56.03
2023-02-13T01:14:40.552Z,56.08
2023-02-13T01:15:41.081Z,56.13
2023-02-13T01:16:40.537Z,59.67
2023-02-13T01:17:40.540Z,60.50
2023-02-13T01:18:40.545Z,56.33
2023-02-13T01:19:40.533Z,57.63
2023-02-13T01:20:40.553Z,63.18
2023-02-13T01:21:40.565Z,59.92
2023-02-13T01:22:40.527Z,56.19
2023-02-13T01:23:40.531Z,64.63
2023-02-13T01:24:40.490Z,61.09
2023-02-13T01:25:40.516Z,56.28
2023-02-13T01:26:40.495Z,57.46
2023-02-13T01:27:40.493Z,58.20
2023-02-13T01:28:40.544Z,56.05
2023-02-13T01:29:40.487Z,56.16
2023-02-13T01:30:40.540Z,59.48
2023-02-13T01:31:40.570Z,56.26
2023-02-13T01:32:40.462Z,56.32
2023-02-13T01:33:40.451Z,59.55
2023-02-13T01:34:40.471Z,59.87
2023-02-13T01:35:40.442Z,56.24
2023-02-13T01:36:40.442Z,59.67
2023-02-13T01:37:40.442Z,56.16
2023-02-13T01:38:40.437Z,60.40
2023-02-13T01:39:40.425Z,56.26
2023-02-13T01:40:40.427Z,59.38
2023-02-13T01:41:40.427Z,56.90
2023-02-13T01:42:40.412Z,65.98
2023-02-13T01:43:40.389Z,56.10
2023-02-13T01:44:40.387Z,56.15
2023-02-13T01:45:40.402Z,56.13
2023-02-13T01:46:40.514Z,56.13
2023-02-13T01:47:40.373Z,56.26
2023-02-13T01:48:40.382Z,60.33
2023-02-13T01:49:40.366Z,56.50
2023-02-13T01:50:40.358Z,55.97
2023-02-13T01:51:40.375Z,56.16
2023-02-13T01:52:40.380Z,60.15
2023-02-13T01:53:40.344Z,59.63
2023-02-13T01:54:40.354Z,56.17
2023-02-13T01:55:40.317Z,56.17
2023-02-13T01:56:40.334Z,56.14
2023-02-13T01:57:40.353Z,56.13
2023-02-13T01:58:40.346Z,57.02
2023-02-13T01:59:40.320Z,59.34
2023-02-13T02:00:40.301Z,62.49
2023-02-13T02:01:40.407Z,64.58
2023-02-13T02:02:40.338Z,56.93
2023-02-13T02:03:40.307Z,60.25
2023-02-13T02:04:40.308Z,56.25
2023-02-13T02:05:40.311Z,56.10
2023-02-13T02:06:40.295Z,57.93
2023-02-13T02:07:40.255Z,58.01
2023-02-13T02:08:40.306Z,56.09
2023-02-13T02:09:40.235Z,56.13
2023-02-13T02:10:40.249Z,60.09
2023-02-13T02:11:40.246Z,60.05
2023-02-13T02:12:40.224Z,56.14
2023-02-13T02:13:40.239Z,56.03
2023-02-13T02:14:40.249Z,55.98
2023-02-13T02:15:40.256Z,56.00
2023-02-13T02:16:40.220Z,56.12
2023-02-13T02:17:40.211Z,56.16
2023-02-13T02:18:40.253Z,64.47
2023-02-13T02:19:40.194Z,56.26
2023-02-13T02:20:40.225Z,56.22
2023-02-13T02:21:40.207Z,56.18
2023-02-13T02:22:40.172Z,56.22
2023-02-13T02:23:40.203Z,56.18
2023-02-13T02:24:40.689Z,56.11
2023-02-13T02:25:40.175Z,60.01
2023-02-13T02:26:40.150Z,56.41
2023-02-13T02:27:40.167Z,57.02
2023-02-13T02:28:40.200Z,60.07
2023-02-13T02:29:40.164Z,59.43
2023-02-13T02:30:40.226Z,56.02
2023-02-13T02:31:40.210Z,56.18
2023-02-13T02:32:40.128Z,56.16
2023-02-13T02:33:40.136Z,56.26
2023-02-13T02:34:40.105Z,56.43
2023-02-13T02:35:40.161Z,59.65
2023-02-13T02:36:40.143Z,58.95
2023-02-13T02:37:40.115Z,63.56
2023-02-13T02:38:40.105Z,56.27
2023-02-13T02:39:40.089Z,60.98
2023-02-13T02:40:40.154Z,57.96
2023-02-13T02:41:40.086Z,56.27
2023-02-13T02:42:40.082Z,56.32
2023-02-13T02:43:40.114Z,56.45
2023-02-13T02:44:40.078Z,57.51
2023-02-13T02:45:40.084Z,59.46
2023-02-13T02:46:40.180Z,59.87
2023-02-13T02:47:40.111Z,56.56
2023-02-13T02:48:40.057Z,64.41
2023-02-13T02:49:40.060Z,56.45
2023-02-13T02:50:41.025Z,62.28
2023-02-13T02:51:40.040Z,58.40
2023-02-13T02:52:40.025Z,59.84
2023-02-13T02:53:40.050Z,56.45
2023-02-13T02:54:39.989Z,56.46
2023-02-13T02:55:40.004Z,58.55
2023-02-13T02:56:39.975Z,58.47
2023-02-13T02:57:40.010Z,64.94
2023-02-13T02:58:40.007Z,56.63
2023-02-13T02:59:39.977Z,56.60
2023-02-13T03:00:39.984Z,56.59
2023-02-13T03:01:39.973Z,56.63
2023-02-13T03:02:39.956Z,58.86
2023-02-13T03:03:39.973Z,61.18
2023-02-13T03:04:39.940Z,56.70
2023-02-13T03:05:39.952Z,58.17
2023-02-13T03:06:39.954Z,64.17
2023-02-13T03:07:39.922Z,64.85
2023-02-13T03:08:39.911Z,66.43
2023-02-13T03:09:39.914Z,60.54
2023-02-13T03:10:39.901Z,66.26
2023-02-13T03:11:39.900Z,56.85
2023-02-13T03:12:39.889Z,59.47
2023-02-13T03:13:39.895Z,63.67
2023-02-13T03:14:39.918Z,56.82
2023-02-13T03:15:39.870Z,64.27
2023-02-13T03:16:39.899Z,58.81
2023-02-13T03:17:39.847Z,57.32
2023-02-13T03:18:40.866Z,56.53
2023-02-13T03:19:39.860Z,62.66
2023-02-13T03:20:39.864Z,56.64
2023-02-13T03:21:39.854Z,56.70
2023-02-13T03:22:39.834Z,60.79
2023-02-13T03:23:39.839Z,61.16
2023-02-13T03:24:39.844Z,59.87
2023-02-13T03:25:39.822Z,60.19
2023-02-13T03:26:39.809Z,56.82
2023-02-13T03:27:39.810Z,64.70
2023-02-13T03:28:39.900Z,66.96
2023-02-13T03:29:42.574Z,63.25
2023-02-13T03:30:39.860Z,58.15
2023-02-13T03:31:39.840Z,67.37
2023-02-13T03:32:39.784Z,64.41
2023-02-13T03:33:39.791Z,64.41
2023-02-13T03:34:39.770Z,67.16
2023-02-13T03:35:39.792Z,58.89
2023-02-13T03:36:39.762Z,57.34
2023-02-13T03:37:39.815Z,63.89
2023-02-13T03:38:39.747Z,65.16
2023-02-13T03:39:39.739Z,63.97
2023-02-13T03:40:39.766Z,60.78
2023-02-13T03:41:39.738Z,61.24
2023-02-13T03:42:39.743Z,64.92
2023-02-13T03:43:39.743Z,66.76
2023-02-13T03:44:39.735Z,64.20
2023-02-13T03:45:39.740Z,58.12
2023-02-13T03:46:39.692Z,60.79
2023-02-13T03:47:39.709Z,70.45
2023-02-13T03:48:39.696Z,66.13
2023-02-13T03:49:39.706Z,65.24
2023-02-13T03:50:39.696Z,65.96
2023-02-13T03:51:39.686Z,67.32
2023-02-13T03:52:39.662Z,60.95
2023-02-13T03:53:39.738Z,65.54
2023-02-13T03:54:39.654Z,58.30
2023-02-13T03:55:39.664Z,63.32
2023-02-13T03:56:39.654Z,68.61
2023-02-13T03:57:39.673Z,62.11
2023-02-13T03:58:39.649Z,58.99
2023-02-13T03:59:39.665Z,62.61
2023-02-13T04:00:39.670Z,64.71
2023-02-13T04:01:39.643Z,68.84
2023-02-13T04:02:39.613Z,66.69
2023-02-13T04:03:39.612Z,72.17
2023-02-13T04:04:39.663Z,69.13
2023-02-13T04:05:39.608Z,64.75
2023-02-13T04:06:39.644Z,71.14
2023-02-13T04:07:39.576Z,61.87
2023-02-13T04:08:39.616Z,67.40
2023-02-13T04:09:39.582Z,65.88
2023-02-13T04:10:39.578Z,65.08
2023-02-13T04:11:39.563Z,70.66
2023-02-13T04:12:39.582Z,68.71
2023-02-13T04:13:39.545Z,65.92
2023-02-13T04:14:39.584Z,66.89
2023-02-13T04:15:39.559Z,67.14
2023-02-13T04:16:39.622Z,64.98
2023-02-13T04:17:39.536Z,72.03
2023-02-13T04:18:39.517Z,74.44
2023-02-13T04:19:39.516Z,63.60
2023-02-13T04:20:39.549Z,67.00
2023-02-13T04:21:39.535Z,66.01
2023-02-13T04:22:39.540Z,72.71
2023-02-13T04:23:39.484Z,68.93
2023-02-13T04:24:39.532Z,74.73
2023-02-13T04:25:39.488Z,66.25
2023-02-13T04:26:39.478Z,62.10
2023-02-13T04:27:39.481Z,69.52
2023-02-13T04:28:39.686Z,67.70
2023-02-13T04:29:39.450Z,65.40
2023-02-13T04:30:39.607Z,67.75
2023-02-13T04:31:39.617Z,67.80
2023-02-13T04:32:39.565Z,69.58
2023-02-13T04:33:40.048Z,70.14
2023-02-13T04:34:39.491Z,69.68
2023-02-13T04:35:39.430Z,71.52
2023-02-13T04:36:39.442Z,70.81
2023-02-13T04:37:39.482Z,68.87
2023-02-13T04:38:39.450Z,72.84
2023-02-13T04:39:39.461Z,69.16
2023-02-13T04:40:39.422Z,71.59
2023-02-13T04:41:40.410Z,72.19
2023-02-13T04:42:39.408Z,66.97
2023-02-13T04:43:39.394Z,71.96
2023-02-13T04:44:39.391Z,74.36
2023-02-13T04:45:39.511Z,71.55
2023-02-13T04:46:39.359Z,68.48
2023-02-13T04:47:39.362Z,65.70
2023-02-13T04:48:39.380Z,72.08
2023-02-13T04:49:39.387Z,72.08
2023-02-13T04:50:39.380Z,70.07
2023-02-13T04:51:39.350Z,60.75
2023-02-13T04:52:39.364Z,70.57
2023-02-13T04:53:39.348Z,70.36
2023-02-13T04:54:39.322Z,71.44
2023-02-13T04:55:39.376Z,66.22
2023-02-13T04:56:39.315Z,70.95
2023-02-13T04:57:39.327Z,71.29
2023-02-13T04:58:39.339Z,71.08
2023-02-13T04:59:39.296Z,66.60
2023-02-13T05:00:39.295Z,70.77
2023-02-13T05:01:39.413Z,69.60
2023-02-13T05:02:39.690Z,67.08
2023-02-13T05:03:40.273Z,67.78
2023-02-13T05:04:39.285Z,72.47
2023-02-13T05:05:39.343Z,66.37
2023-02-13T05:06:39.300Z,70.70
2023-02-13T05:07:39.258Z,67.04
2023-02-13T05:08:39.270Z,73.94
2023-02-13T05:09:41.456Z,66.35
2023-02-13T05:10:40.228Z,72.21
2023-02-13T05:11:40.267Z,68.27
2023-02-13T05:12:39.290Z,72.19
2023-02-13T05:13:39.233Z,69.11
2023-02-13T05:14:39.193Z,72.23
2023-02-13T05:15:39.328Z,72.50
2023-02-13T05:16:39.215Z,71.46
2023-02-13T05:17:39.233Z,76.21
2023-02-13T05:18:39.203Z,70.26
2023-02-13T05:19:39.191Z,67.90
2023-02-13T05:20:39.168Z,71.58
2023-02-13T05:21:39.152Z,74.22
2023-02-13T05:22:39.189Z,68.71
2023-02-13T05:23:39.176Z,71.01
2023-02-13T05:24:39.163Z,72.58
2023-02-13T05:25:39.170Z,69.96
2023-02-13T05:26:39.182Z,68.93
2023-02-13T05:27:39.175Z,74.01
2023-02-13T05:28:39.157Z,72.33
2023-02-13T05:29:39.121Z,78.16
2023-02-13T05:30:39.132Z,70.28
2023-02-13T05:31:39.236Z,72.86
2023-02-13T05:32:39.124Z,66.09
2023-02-13T05:33:39.085Z,75.68
2023-02-13T05:34:39.110Z,71.34
2023-02-13T05:35:39.123Z,73.16
2023-02-13T05:36:39.101Z,69.86
2023-02-13T05:37:39.101Z,71.22
2023-02-13T05:38:39.078Z,72.64
2023-02-13T05:39:39.086Z,73.38
2023-02-13T05:40:39.096Z,71.65
2023-02-13T05:41:39.052Z,65.30
2023-02-13T05:42:39.028Z,75.49
2023-02-13T05:43:39.021Z,68.75
2023-02-13T05:44:40.035Z,72.20
2023-02-13T05:45:39.069Z,71.07
2023-02-13T05:46:39.487Z,69.77
2023-02-13T05:47:40.031Z,78.02
2023-02-13T05:48:39.043Z,70.96
2023-02-13T05:49:39.024Z,72.34
2023-02-13T05:50:39.030Z,71.28
2023-02-13T05:51:39.015Z,73.43
2023-02-13T05:52:39.023Z,74.58
2023-02-13T05:53:39.000Z,72.52
2023-02-13T05:54:39.063Z,72.85
2023-02-13T05:55:38.993Z,73.19
2023-02-13T05:56:38.958Z,72.46
2023-02-13T05:57:39.024Z,71.61
2023-02-13T05:58:38.951Z,70.06
2023-02-13T05:59:38.988Z,67.40
2023-02-13T06:00:39.024Z,75.63
2023-02-13T06:01:38.992Z,71.39
2023-02-13T06:02:39.022Z,69.16
2023-02-13T06:03:41.596Z,70.31
2023-02-13T06:04:38.925Z,74.72
2023-02-13T06:05:38.906Z,73.77
2023-02-13T06:06:38.908Z,72.94
2023-02-13T06:07:38.912Z,65.81
2023-02-13T06:08:38.894Z,69.47
2023-02-13T06:09:38.899Z,74.10
2023-02-13T06:10:38.898Z,73.97
2023-02-13T06:11:38.877Z,69.66
2023-02-13T06:12:38.866Z,69.51
2023-02-13T06:13:38.863Z,76.86
2023-02-13T06:14:38.882Z,70.65
2023-02-13T06:15:38.870Z,74.81
2023-02-13T06:16:38.860Z,72.58
2023-02-13T06:17:38.850Z,76.51
2023-02-13T06:18:38.835Z,75.44
2023-02-13T06:19:38.825Z,71.08
2023-02-13T06:20:38.813Z,73.30
2023-02-13T06:21:38.807Z,72.41
2023-02-13T06:22:38.832Z,74.43
2023-02-13T06:23:38.829Z,75.12
2023-02-13T06:24:38.888Z,73.44
2023-02-13T06:25:38.780Z,71.55
2023-02-13T06:26:38.783Z,69.97
2023-02-13T06:27:38.768Z,74.65
2023-02-13T06:28:38.833Z,71.94
2023-02-13T06:29:38.784Z,73.87
2023-02-13T06:30:38.833Z,75.34
2023-02-13T06:31:38.786Z,74.98
2023-02-13T06:32:38.753Z,72.70
2023-02-13T06:33:38.754Z,74.40
2023-02-13T06:34:38.797Z,75.61
2023-02-13T06:35:38.742Z,73.80
2023-02-13T06:36:38.785Z,72.78
2023-02-13T06:37:38.757Z,74.57
2023-02-13T06:38:38.733Z,72.01
2023-02-13T06:39:39.497Z,74.48
2023-02-13T06:40:38.729Z,75.25
2023-02-13T06:41:38.712Z,72.36
2023-02-13T06:42:38.708Z,73.88
2023-02-13T06:43:40.801Z,71.92
2023-02-13T06:44:39.691Z,73.68
2023-02-13T06:45:38.684Z,73.18
2023-02-13T06:46:38.708Z,72.23
2023-02-13T06:47:38.677Z,73.16
2023-02-13T06:48:38.747Z,75.53
2023-02-13T06:49:38.661Z,76.46
2023-02-13T06:50:38.661Z,74.97
2023-02-13T06:51:38.635Z,74.61
2023-02-13T06:52:38.640Z,73.51
2023-02-13T06:53:38.698Z,75.33
2023-02-13T06:54:47.167Z,76.84
2023-02-13T06:55:40.681Z,75.16
2023-02-13T06:56:38.642Z,73.18
2023-02-13T06:57:38.682Z,71.31
2023-02-13T06:58:38.628Z,71.38
2023-02-13T06:59:38.623Z,77.36
2023-02-13T07:00:38.639Z,74.32
2023-02-13T07:01:38.627Z,71.78
2023-02-13T07:02:38.746Z,71.92
2023-02-13T07:03:38.622Z,74.43
2023-02-13T07:04:38.620Z,75.95
2023-02-13T07:05:38.579Z,72.08
2023-02-13T07:06:38.591Z,73.17
2023-02-13T07:07:39.206Z,69.35
2023-02-13T07:08:38.582Z,69.03
2023-02-13T07:09:38.601Z,73.55
2023-02-13T07:10:38.574Z,70.76
2023-02-13T07:11:38.611Z,72.87
2023-02-13T07:12:38.584Z,72.67
2023-02-13T07:13:38.582Z,69.66
2023-02-13T07:14:38.634Z,71.63
2023-02-13T07:15:38.626Z,72.46
2023-02-13T07:16:38.514Z,69.91
2023-02-13T07:17:38.533Z,72.57
2023-02-13T07:18:38.716Z,71.07
2023-02-13T07:19:38.504Z,70.15
2023-02-13T07:20:38.512Z,71.57
2023-02-13T07:21:38.502Z,70.52
2023-02-13T07:22:38.472Z,72.28
2023-02-13T07:23:38.460Z,72.36
2023-02-13T07:24:38.504Z,74.49
2023-02-13T07:25:38.509Z,70.83
2023-02-13T07:26:38.450Z,71.12
2023-02-13T07:27:38.479Z,70.66
2023-02-13T07:28:38.538Z,73.13
2023-02-13T07:29:38.457Z,69.72
2023-02-13T07:30:38.525Z,70.23
2023-02-13T07:31:38.449Z,74.12
2023-02-13T07:32:38.445Z,72.00
2023-02-13T07:33:38.417Z,73.42
2023-02-13T07:34:41.197Z,72.09
2023-02-13T07:35:39.433Z,73.72
2023-02-13T07:36:38.517Z,74.71
2023-02-13T07:37:38.490Z,72.70
2023-02-13T07:38:38.452Z,69.51
2023-02-13T07:39:38.432Z,74.45
2023-02-13T07:40:39.441Z,71.42
2023-02-13T07:41:38.408Z,71.26
2023-02-13T07:42:38.396Z,72.45
2023-02-13T07:43:38.390Z,73.57
2023-02-13T07:44:38.411Z,70.72
2023-02-13T07:45:38.369Z,72.34
2023-02-13T07:46:38.390Z,71.81
2023-02-13T07:47:38.460Z,65.52
2023-02-13T07:48:38.363Z,72.92
2023-02-13T07:49:38.342Z,73.94
2023-02-13T07:50:38.343Z,72.10
2023-02-13T07:51:38.407Z,73.67
2023-02-13T07:52:38.378Z,71.76
2023-02-13T07:53:38.329Z,70.63
2023-02-13T07:54:38.360Z,70.17
2023-02-13T07:55:38.384Z,71.60
2023-02-13T07:56:38.306Z,72.36
2023-02-13T07:57:38.348Z,73.50
2023-02-13T07:58:38.300Z,70.77
2023-02-13T07:59:38.338Z,65.98
2023-02-13T08:00:38.300Z,71.45
2023-02-13T08:01:38.339Z,72.22
2023-02-13T08:02:38.263Z,69.69
2023-02-13T08:03:38.334Z,70.74
2023-02-13T08:04:38.272Z,71.73
2023-02-13T08:05:38.261Z,73.63
2023-02-13T08:06:38.264Z,71.14
2023-02-13T08:07:38.229Z,70.12
2023-02-13T08:08:38.235Z,75.59
2023-02-13T08:09:39.616Z,69.59
2023-02-13T08:10:39.241Z,65.86
2023-02-13T08:11:38.202Z,72.91
2023-02-13T08:12:38.223Z,70.69
2023-02-13T08:13:38.212Z,72.28
2023-02-13T08:14:38.188Z,69.63
2023-02-13T08:15:38.225Z,67.01
2023-02-13T08:16:38.252Z,70.53
2023-02-13T08:17:38.180Z,69.12
2023-02-13T08:18:38.202Z,70.02
2023-02-13T08:19:38.185Z,73.74
2023-02-13T08:20:38.180Z,70.58
2023-02-13T08:21:38.176Z,74.53
2023-02-13T08:22:38.150Z,68.45
2023-02-13T08:23:38.184Z,71.87
2023-02-13T08:24:38.168Z,70.09
2023-02-13T08:25:38.227Z,67.41
2023-02-13T08:26:38.112Z,71.26
2023-02-13T08:27:38.145Z,74.00
2023-02-13T08:28:38.233Z,71.00
2023-02-13T08:29:38.105Z,71.78
2023-02-13T08:30:38.175Z,71.51
2023-02-13T08:31:38.169Z,67.96
2023-02-13T08:32:53.126Z,73.30
2023-02-13T08:33:40.060Z,70.31
2023-02-13T08:34:38.053Z,73.78
2023-02-13T08:35:39.389Z,70.22
2023-02-13T08:36:38.046Z,73.69
2023-02-13T08:37:38.081Z,72.07
2023-02-13T08:38:38.052Z,64.42
2023-02-13T08:39:38.175Z,69.86
2023-02-13T08:40:38.037Z,73.15
2023-02-13T08:41:38.027Z,69.28
2023-02-13T08:42:38.044Z,70.10
2023-02-13T08:43:37.999Z,71.95
2023-02-13T08:44:38.050Z,69.98
2023-02-13T08:45:38.037Z,71.27
2023-02-13T08:46:38.145Z,71.06
2023-02-13T08:47:38.065Z,69.64
2023-02-13T08:48:38.012Z,72.90
2023-02-13T08:49:37.994Z,72.22
2023-02-13T08:50:38.021Z,68.79
2023-02-13T08:51:37.992Z,71.50
2023-02-13T08:52:38.030Z,71.54
2023-02-13T08:53:37.961Z,71.67
2023-02-13T08:54:38.035Z,71.54
2023-02-13T08:55:38.664Z,71.15
2023-02-13T08:56:38.554Z,71.28
2023-02-13T08:57:37.944Z,72.47
2023-02-13T08:58:38.052Z,72.19
2023-02-13T08:59:37.974Z,69.85
2023-02-13T09:00:37.953Z,71.18
2023-02-13T09:01:38.002Z,72.89
2023-02-13T09:02:37.978Z,74.40
2023-02-13T09:03:37.982Z,70.97
2023-02-13T09:04:37.927Z,72.54
2023-02-13T09:05:37.915Z,72.40
2023-02-13T09:06:37.900Z,70.22
2023-02-13T09:07:37.914Z,66.53
2023-02-13T09:08:37.962Z,72.94
2023-02-13T09:09:37.871Z,72.61
2023-02-13T09:10:37.911Z,64.05
2023-02-13T09:11:37.856Z,70.27
2023-02-13T09:12:37.857Z,69.90
2023-02-13T09:13:37.875Z,69.64
2023-02-13T09:14:38.252Z,71.52
2023-02-13T09:15:37.834Z,73.66
2023-02-13T09:16:37.905Z,71.48
2023-02-13T09:17:38.623Z,71.35
2023-02-13T09:18:37.851Z,68.82
2023-02-13T09:19:37.892Z,73.96
2023-02-13T09:20:37.840Z,67.21
2023-02-13T09:21:37.821Z,70.47
2023-02-13T09:22:37.834Z,69.51
2023-02-13T09:23:37.815Z,71.95
2023-02-13T09:24:37.838Z,71.29
2023-02-13T09:25:37.812Z,69.08
2023-02-13T09:26:37.772Z,67.58
2023-02-13T09:27:37.768Z,71.48
2023-02-13T09:28:37.843Z,66.64
2023-02-13T09:29:37.777Z,71.92
2023-02-13T09:30:37.796Z,71.84
2023-02-13T09:31:37.847Z,72.48
2023-02-13T09:32:37.799Z,73.12
2023-02-13T09:33:39.554Z,69.69
2023-02-13T09:34:37.729Z,70.56
2023-02-13T09:35:37.705Z,74.52
2023-02-13T09:36:37.756Z,72.11
2023-02-13T09:37:37.697Z,71.40
2023-02-13T09:38:37.688Z,72.67
2023-02-13T09:39:37.825Z,68.94
2023-02-13T09:40:37.712Z,69.74
2023-02-13T09:41:37.788Z,73.23
2023-02-13T09:42:37.668Z,70.55
2023-02-13T09:43:37.689Z,70.50
2023-02-13T09:44:37.658Z,66.39
2023-02-13T09:45:37.741Z,71.37
2023-02-13T09:46:37.832Z,69.16
2023-02-13T09:47:37.692Z,73.01
2023-02-13T09:48:37.639Z,70.14
2023-02-13T09:49:37.660Z,72.78
2023-02-13T09:50:37.615Z,73.81
2023-02-13T09:51:37.621Z,72.76
2023-02-13T09:52:37.620Z,69.95
2023-02-13T09:53:37.662Z,70.53
2023-02-13T09:54:37.601Z,71.14
2023-02-13T09:55:37.578Z,72.11
2023-02-13T09:56:37.592Z,71.26
2023-02-13T09:57:37.586Z,68.36
2023-02-13T09:58:37.579Z,71.85
2023-02-13T09:59:37.582Z,70.48
2023-02-13T10:00:37.553Z,69.47
2023-02-13T10:01:37.560Z,69.21
2023-02-13T10:02:37.549Z,69.56
2023-02-13T10:03:37.606Z,68.98
2023-02-13T10:04:37.555Z,64.17
2023-02-13T10:05:37.512Z,70.52
2023-02-13T10:06:37.529Z,66.04
2023-02-13T10:07:37.510Z,71.85
2023-02-13T10:08:37.533Z,71.58
2023-02-13T10:09:37.688Z,69.19
2023-02-13T10:10:37.501Z,73.29
2023-02-13T10:11:37.515Z,67.80
2023-02-13T10:12:37.456Z,72.99
2023-02-13T10:13:37.619Z,68.98
2023-02-13T10:14:37.507Z,66.59
2023-02-13T10:15:37.527Z,66.48
2023-02-13T10:16:37.459Z,71.27
2023-02-13T10:17:37.521Z,71.24
2023-02-13T10:18:37.478Z,64.18
2023-02-13T10:19:37.467Z,71.42
2023-02-13T10:20:37.461Z,67.58
2023-02-13T10:21:37.413Z,69.48
2023-02-13T10:22:37.412Z,71.68
2023-02-13T10:23:37.390Z,72.21
2023-02-13T10:24:37.435Z,66.84
2023-02-13T10:25:37.420Z,68.76
2023-02-13T10:26:37.413Z,67.73
2023-02-13T10:27:37.453Z,73.58
2023-02-13T10:28:37.436Z,72.81
2023-02-13T10:29:37.755Z,70.80
2023-02-13T10:30:37.375Z,71.85
2023-02-13T10:31:37.491Z,70.71
2023-02-13T10:32:37.367Z,68.77
2023-02-13T10:33:37.376Z,68.84
2023-02-13T10:34:37.371Z,74.75
2023-02-13T10:35:38.192Z,68.02
2023-02-13T10:36:37.352Z,70.52
2023-02-13T10:37:37.439Z,68.44
2023-02-13T10:38:37.352Z,70.50
2023-02-13T10:39:37.353Z,72.77
2023-02-13T10:40:37.326Z,68.31
2023-02-13T10:41:37.373Z,70.77
2023-02-13T10:42:37.296Z,70.87
2023-02-13T10:43:37.320Z,67.99
2023-02-13T10:44:37.400Z,68.88
2023-02-13T10:45:37.299Z,69.77
2023-02-13T10:46:37.344Z,71.30
2023-02-13T10:47:37.308Z,68.41
2023-02-13T10:48:37.263Z,70.04
2023-02-13T10:49:37.365Z,72.75
2023-02-13T10:50:37.271Z,69.33
2023-02-13T10:51:37.263Z,69.92
2023-02-13T10:52:37.276Z,64.95
2023-02-13T10:53:37.296Z,70.10
2023-02-13T10:54:37.219Z,72.69
2023-02-13T10:55:37.209Z,68.87
2023-02-13T10:56:37.229Z,70.08
2023-02-13T10:57:37.241Z,69.15
2023-02-13T10:58:37.216Z,73.68
2023-02-13T10:59:37.176Z,69.45
2023-02-13T11:00:37.228Z,70.39
2023-02-13T11:01:37.238Z,70.17
2023-02-13T11:02:37.212Z,68.82
2023-02-13T11:03:37.197Z,71.95
2023-02-13T11:04:37.266Z,72.37
2023-02-13T11:05:37.206Z,68.06
2023-02-13T11:06:37.167Z,69.66
2023-02-13T11:07:39.540Z,72.29
2023-02-13T11:08:39.641Z,71.66
2023-02-13T11:09:37.152Z,72.85
2023-02-13T11:10:37.145Z,71.63
2023-02-13T11:11:37.178Z,66.92
2023-02-13T11:12:37.193Z,70.77
2023-02-13T11:13:37.201Z,68.92
2023-02-13T11:14:37.152Z,71.03
2023-02-13T11:15:37.126Z,72.99
2023-02-13T11:16:37.178Z,73.48
2023-02-13T11:17:38.084Z,71.62
2023-02-13T11:18:37.141Z,73.05
2023-02-13T11:19:37.124Z,71.42
2023-02-13T11:20:37.201Z,69.82
2023-02-13T11:21:37.086Z,72.22
2023-02-13T11:22:37.653Z,68.78
2023-02-13T11:23:37.090Z,71.32
2023-02-13T11:24:37.098Z,70.66
2023-02-13T11:25:37.062Z,68.60
2023-02-13T11:26:37.084Z,72.21
2023-02-13T11:27:37.644Z,69.47
2023-02-13T11:28:37.225Z,70.01
2023-02-13T11:29:37.090Z,69.40
2023-02-13T11:30:37.118Z,69.36
2023-02-13T11:31:37.211Z,68.23
2023-02-13T11:32:37.095Z,67.54
2023-02-13T11:33:37.011Z,69.33
2023-02-13T11:34:37.037Z,72.43
2023-02-13T11:35:37.033Z,71.40
2023-02-13T11:36:37.027Z,69.55
2023-02-13T11:37:37.067Z,72.53
2023-02-13T11:38:36.996Z,69.49
2023-02-13T11:39:36.989Z,70.73
2023-02-13T11:40:37.016Z,69.36
2023-02-13T11:41:36.991Z,70.78
2023-02-13T11:42:37.227Z,70.02
2023-02-13T11:43:37.079Z,71.74
2023-02-13T11:44:36.955Z,71.07
2023-02-13T11:45:36.925Z,71.35
2023-02-13T11:46:38.808Z,65.80
2023-02-13T11:47:36.950Z,71.22
2023-02-13T11:48:36.958Z,70.77
2023-02-13T11:49:36.950Z,71.66
2023-02-13T11:50:37.012Z,71.76
2023-02-13T11:51:36.893Z,73.85
2023-02-13T11:52:36.954Z,69.76
2023-02-13T11:53:36.905Z,63.19
2023-02-13T11:54:36.899Z,73.52
2023-02-13T11:55:36.882Z,64.62
2023-02-13T11:56:42.645Z,72.68
2023-02-13T11:57:38.894Z,68.75
2023-02-13T11:58:36.939Z,70.27
2023-02-13T11:59:36.924Z,71.06
2023-02-13T12:00:36.823Z,68.80
2023-02-13T12:01:36.888Z,76.81
2023-02-13T12:02:36.872Z,73.70
2023-02-13T12:03:37.732Z,70.38
2023-02-13T12:04:36.829Z,69.79
2023-02-13T12:05:36.793Z,70.69
2023-02-13T12:06:36.818Z,70.58
2023-02-13T12:07:36.809Z,75.06
2023-02-13T12:08:36.796Z,71.82
2023-02-13T12:09:38.712Z,72.40
2023-02-13T12:10:36.808Z,69.61
2023-02-13T12:11:36.795Z,73.28
2023-02-13T12:12:36.779Z,73.36
2023-02-13T12:13:36.799Z,72.94
2023-02-13T12:14:36.737Z,66.20
2023-02-13T12:15:37.752Z,68.06
2023-02-13T12:16:36.827Z,71.50
2023-02-13T12:17:36.769Z,70.57
2023-02-13T12:18:36.731Z,70.36
2023-02-13T12:19:36.787Z,71.17
2023-02-13T12:20:36.811Z,72.46
2023-02-13T12:21:36.734Z,69.34
2023-02-13T12:22:36.846Z,67.84
2023-02-13T12:23:36.685Z,71.44
2023-02-13T12:24:37.660Z,72.44
2023-02-13T12:25:36.737Z,71.68
2023-02-13T12:26:36.672Z,71.03
2023-02-13T12:27:36.713Z,70.93
2023-02-13T12:29:37.205Z,69.10
2023-02-13T12:30:36.683Z,66.70
2023-02-13T12:31:36.715Z,69.95
2023-02-13T12:32:37.281Z,73.00
2023-02-13T12:33:36.670Z,69.74
2023-02-13T12:34:36.652Z,69.79
2023-02-13T12:35:36.746Z,69.37
2023-02-13T12:36:36.593Z,72.31
2023-02-13T12:37:36.575Z,69.74
2023-02-13T12:38:36.574Z,70.44
2023-02-13T12:39:36.583Z,73.01
2023-02-13T12:40:36.557Z,63.48
2023-02-13T12:41:36.546Z,71.05
2023-02-13T12:42:36.541Z,70.55
2023-02-13T12:43:36.537Z,71.00
2023-02-13T12:44:36.638Z,74.12
2023-02-13T12:45:36.569Z,72.51
2023-02-13T12:46:39.535Z,71.90
2023-02-13T12:47:36.515Z,72.64
2023-02-13T12:48:36.500Z,72.60
2023-02-13T12:49:36.553Z,72.08
2023-02-13T12:50:36.505Z,71.83
2023-02-13T12:51:36.459Z,70.02
2023-02-13T12:52:36.489Z,73.10
2023-02-13T12:53:36.490Z,67.73